sensor_id;sensor_type;location;lat;lon;timestamp;temperature;humidity
55329;DHT22;41205;44.264;19.884;2023-10-08T00:01:35;358.50;2304.00
55329;DHT22;41205;44.264;19.884;2023-10-08T00:04:07;358.60;2278.40
55329;DHT22;41205;44.264;19.884;2023-10-08T00:06:33;358.70;2252.80
55329;DHT22;41205;44.264;19.884;2023-10-08T00:08:59;358.70;2329.60
55329;DHT22;41205;44.264;19.884;2023-10-08T00:11:26;358.70;2329.60
55329;DHT22;41205;44.264;19.884;2023-10-08T00:13:54;358.60;2329.60
55329;DHT22;41205;44.264;19.884;2023-10-08T00:16:22;358.60;2304.00
55329;DHT22;41205;44.264;19.884;2023-10-08T00:18:48;358.70;2252.80
55329;DHT22;41205;44.264;19.884;2023-10-08T00:21:21;358.60;2329.60
55329;DHT22;41205;44.264;19.884;2023-10-08T00:23:53;358.60;2329.60
55329;DHT22;41205;44.264;19.884;2023-10-08T00:26:26;358.60;2329.60
55329;DHT22;41205;44.264;19.884;2023-10-08T00:29:01;358.50;2304.00
55329;DHT22;41205;44.264;19.884;2023-10-08T00:31:35;358.50;2304.00
55329;DHT22;41205;44.264;19.884;2023-10-08T00:34:06;358.50;2329.60
55329;DHT22;41205;44.264;19.884;2023-10-08T00:36:33;358.40;2329.60
55329;DHT22;41205;44.264;19.884;2023-10-08T00:38:59;358.40;2329.60
55329;DHT22;41205;44.264;19.884;2023-10-08T00:41:26;358.40;2329.60
55329;DHT22;41205;44.264;19.884;2023-10-08T00:43:57;333.70;2329.60
55329;DHT22;41205;44.264;19.884;2023-10-08T00:46:25;333.70;2329.60
55329;DHT22;41205;44.264;19.884;2023-10-08T00:49:11;333.70;2329.60
55329;DHT22;41205;44.264;19.884;2023-10-08T00:51:59;333.70;2329.60
55329;DHT22;41205;44.264;19.884;2023-10-08T00:54:29;333.70;2329.60
55329;DHT22;41205;44.264;19.884;2023-10-08T00:57:21;333.70;2329.60
55329;DHT22;41205;44.264;19.884;2023-10-08T00:59:48;333.60;2329.60
55329;DHT22;41205;44.264;19.884;2023-10-08T01:02:21;333.60;2329.60
55329;DHT22;41205;44.264;19.884;2023-10-08T01:04:52;333.60;2329.60
55329;DHT22;41205;44.264;19.884;2023-10-08T01:07:20;333.60;2329.60
55329;DHT22;41205;44.264;19.884;2023-10-08T01:09:46;333.60;2329.60
55329;DHT22;41205;44.264;19.884;2023-10-08T01:12:21;333.60;2329.60
55329;DHT22;41205;44.264;19.884;2023-10-08T01:14:49;333.60;2329.60
55329;DHT22;41205;44.264;19.884;2023-10-08T01:17:20;333.60;2329.60
55329;DHT22;41205;44.264;19.884;2023-10-08T01:19:50;333.60;2329.60
55329;DHT22;41205;44.264;19.884;2023-10-08T01:22:36;333.60;2329.60
55329;DHT22;41205;44.264;19.884;2023-10-08T01:25:04;333.60;2329.60
55329;DHT22;41205;44.264;19.884;2023-10-08T01:27:31;333.60;2329.60
55329;DHT22;41205;44.264;19.884;2023-10-08T01:30:00;333.60;2329.60
55329;DHT22;41205;44.264;19.884;2023-10-08T01:32:43;333.60;2329.60
55329;DHT22;41205;44.264;19.884;2023-10-08T01:35:09;333.60;2329.60
55329;DHT22;41205;44.264;19.884;2023-10-08T01:37:52;333.60;2329.60
55329;DHT22;41205;44.264;19.884;2023-10-08T01:40:18;333.50;2329.60
55329;DHT22;41205;44.264;19.884;2023-10-08T01:42:44;333.40;2329.60
55329;DHT22;41205;44.264;19.884;2023-10-08T01:45:11;333.50;2329.60
55329;DHT22;41205;44.264;19.884;2023-10-08T01:47:39;333.50;2329.60
55329;DHT22;41205;44.264;19.884;2023-10-08T01:50:05;333.50;2329.60
55329;DHT22;41205;44.264;19.884;2023-10-08T01:52:37;333.40;2329.60
55329;DHT22;41205;44.264;19.884;2023-10-08T01:55:06;333.40;2329.60
55329;DHT22;41205;44.264;19.884;2023-10-08T01:57:35;333.40;2329.60
55329;DHT22;41205;44.264;19.884;2023-10-08T02:00:05;333.40;2329.60
55329;DHT22;41205;44.264;19.884;2023-10-08T02:02:32;333.40;2329.60
55329;DHT22;41205;44.264;19.884;2023-10-08T02:04:59;333.50;2329.60
55329;DHT22;41205;44.264;19.884;2023-10-08T02:07:25;333.50;2329.60
55329;DHT22;41205;44.264;19.884;2023-10-08T02:09:51;333.40;2329.60
55329;DHT22;41205;44.264;19.884;2023-10-08T02:12:16;333.50;2329.60
55329;DHT22;41205;44.264;19.884;2023-10-08T02:14:42;333.50;2329.60
55329;DHT22;41205;44.264;19.884;2023-10-08T02:17:08;333.40;2329.60
55329;DHT22;41205;44.264;19.884;2023-10-08T02:19:35;333.40;2329.60
55329;DHT22;41205;44.264;19.884;2023-10-08T02:22:02;333.40;2329.60
55329;DHT22;41205;44.264;19.884;2023-10-08T02:24:31;333.40;2329.60
55329;DHT22;41205;44.264;19.884;2023-10-08T02:26:58;333.50;2329.60
55329;DHT22;41205;44.264;19.884;2023-10-08T02:29:29;333.60;2329.60
55329;DHT22;41205;44.264;19.884;2023-10-08T02:31:59;333.70;2329.60
55329;DHT22;41205;44.264;19.884;2023-10-08T02:34:25;333.70;2329.60
55329;DHT22;41205;44.264;19.884;2023-10-08T02:36:52;358.40;2329.60
55329;DHT22;41205;44.264;19.884;2023-10-08T02:39:17;358.40;2329.60
55329;DHT22;41205;44.264;19.884;2023-10-08T02:41:53;358.40;2329.60
55329;DHT22;41205;44.264;19.884;2023-10-08T02:44:22;358.40;2329.60
55329;DHT22;41205;44.264;19.884;2023-10-08T02:46:48;358.40;2329.60
55329;DHT22;41205;44.264;19.884;2023-10-08T02:49:15;358.40;2329.60
55329;DHT22;41205;44.264;19.884;2023-10-08T02:51:53;358.40;2329.60
55329;DHT22;41205;44.264;19.884;2023-10-08T02:54:21;333.70;2329.60
55329;DHT22;41205;44.264;19.884;2023-10-08T02:56:50;333.70;2329.60
55329;DHT22;41205;44.264;19.884;2023-10-08T02:59:32;333.70;2329.60
55329;DHT22;41205;44.264;19.884;2023-10-08T03:02:06;333.70;2329.60
55329;DHT22;41205;44.264;19.884;2023-10-08T03:04:43;358.50;2329.60
55329;DHT22;41205;44.264;19.884;2023-10-08T03:07:14;358.50;2329.60
55329;DHT22;41205;44.264;19.884;2023-10-08T03:09:58;358.50;2329.60
55329;DHT22;41205;44.264;19.884;2023-10-08T03:12:46;358.50;2329.60
55329;DHT22;41205;44.264;19.884;2023-10-08T03:15:13;358.60;2329.60
55329;DHT22;41205;44.264;19.884;2023-10-08T03:17:42;358.70;2278.40
55329;DHT22;41205;44.264;19.884;2023-10-08T03:20:18;358.70;2278.40
55329;DHT22;41205;44.264;19.884;2023-10-08T03:23:02;358.80;2304.00
55329;DHT22;41205;44.264;19.884;2023-10-08T03:25:31;358.80;2278.40
55329;DHT22;41205;44.264;19.884;2023-10-08T03:28:07;358.80;2278.40
55329;DHT22;41205;44.264;19.884;2023-10-08T03:30:34;358.80;2304.00
55329;DHT22;41205;44.264;19.884;2023-10-08T03:33:13;358.90;2278.40
55329;DHT22;41205;44.264;19.884;2023-10-08T03:35:48;358.90;2252.80
55329;DHT22;41205;44.264;19.884;2023-10-08T03:38:15;359.00;2252.80
55329;DHT22;41205;44.264;19.884;2023-10-08T03:40:47;359.00;2278.40
55329;DHT22;41205;44.264;19.884;2023-10-08T03:43:15;359.00;2278.40
55329;DHT22;41205;44.264;19.884;2023-10-08T03:45:49;359.00;2278.40
55329;DHT22;41205;44.264;19.884;2023-10-08T03:48:20;359.00;2252.80
55329;DHT22;41205;44.264;19.884;2023-10-08T03:50:48;359.10;2252.80
55329;DHT22;41205;44.264;19.884;2023-10-08T03:53:22;359.10;2201.60
55329;DHT22;41205;44.264;19.884;2023-10-08T03:55:48;359.20;2201.60
55329;DHT22;41205;44.264;19.884;2023-10-08T03:58:17;359.20;2227.20
55329;DHT22;41205;44.264;19.884;2023-10-08T04:00:57;359.30;2227.20
55329;DHT22;41205;44.264;19.884;2023-10-08T04:03:37;359.30;2201.60
55329;DHT22;41205;44.264;19.884;2023-10-08T04:06:21;359.30;2227.20
55329;DHT22;41205;44.264;19.884;2023-10-08T04:09:05;384.00;2201.60
55329;DHT22;41205;44.264;19.884;2023-10-08T04:11:34;384.00;2201.60
55329;DHT22;41205;44.264;19.884;2023-10-08T04:14:15;384.10;2176.00
55329;DHT22;41205;44.264;19.884;2023-10-08T04:16:45;384.20;2176.00
55329;DHT22;41205;44.264;19.884;2023-10-08T04:19:11;384.30;2150.40
55329;DHT22;41205;44.264;19.884;2023-10-08T04:21:38;384.40;2124.80
55329;DHT22;41205;44.264;19.884;2023-10-08T04:24:08;384.60;2073.60
55329;DHT22;41205;44.264;19.884;2023-10-08T04:26:37;384.60;2201.60
55329;DHT22;41205;44.264;19.884;2023-10-08T04:29:06;384.50;2201.60
55329;DHT22;41205;44.264;19.884;2023-10-08T04:31:35;384.40;2176.00
55329;DHT22;41205;44.264;19.884;2023-10-08T04:34:05;384.50;2176.00
55329;DHT22;41205;44.264;19.884;2023-10-08T04:36:48;384.50;2176.00
55329;DHT22;41205;44.264;19.884;2023-10-08T04:39:20;384.60;2150.40
55329;DHT22;41205;44.264;19.884;2023-10-08T04:42:01;384.70;2124.80
55329;DHT22;41205;44.264;19.884;2023-10-08T04:44:37;384.80;2124.80
55329;DHT22;41205;44.264;19.884;2023-10-08T04:47:09;384.80;2124.80
55329;DHT22;41205;44.264;19.884;2023-10-08T04:49:37;384.80;2201.60
55329;DHT22;41205;44.264;19.884;2023-10-08T04:52:10;384.90;2150.40
55329;DHT22;41205;44.264;19.884;2023-10-08T04:54:41;409.60;2150.40
55329;DHT22;41205;44.264;19.884;2023-10-08T04:57:17;409.60;2176.00
55329;DHT22;41205;44.264;19.884;2023-10-08T04:59:44;409.70;2150.40
55329;DHT22;41205;44.264;19.884;2023-10-08T05:02:12;409.70;2176.00
55329;DHT22;41205;44.264;19.884;2023-10-08T05:04:58;409.90;2073.60
55329;DHT22;41205;44.264;19.884;2023-10-08T05:07:35;410.20;2073.60
55329;DHT22;41205;44.264;19.884;2023-10-08T05:10:10;410.40;2048.00
55329;DHT22;41205;44.264;19.884;2023-10-08T05:12:56;410.50;2022.40
55329;DHT22;41205;44.264;19.884;2023-10-08T05:15:32;435.20;2048.00
55329;DHT22;41205;44.264;19.884;2023-10-08T05:18:12;435.30;1996.80
55329;DHT22;41205;44.264;19.884;2023-10-08T05:20:44;435.40;1996.80
55329;DHT22;41205;44.264;19.884;2023-10-08T05:23:18;435.50;1971.20
55329;DHT22;41205;44.264;19.884;2023-10-08T05:25:53;435.60;2022.40
55329;DHT22;41205;44.264;19.884;2023-10-08T05:28:31;435.60;1996.80
55329;DHT22;41205;44.264;19.884;2023-10-08T05:31:09;435.60;1971.20
55329;DHT22;41205;44.264;19.884;2023-10-08T05:33:42;435.70;2022.40
55329;DHT22;41205;44.264;19.884;2023-10-08T05:36:41;435.80;1996.80
55329;DHT22;41205;44.264;19.884;2023-10-08T05:39:25;435.90;1971.20
55329;DHT22;41205;44.264;19.884;2023-10-08T05:41:51;435.90;1971.20
55329;DHT22;41205;44.264;19.884;2023-10-08T05:44:20;436.10;1971.20
55329;DHT22;41205;44.264;19.884;2023-10-08T05:46:45;460.80;1996.80
55329;DHT22;41205;44.264;19.884;2023-10-08T05:49:20;460.80;1996.80
55329;DHT22;41205;44.264;19.884;2023-10-08T05:52:04;460.90;1996.80
55329;DHT22;41205;44.264;19.884;2023-10-08T05:54:30;460.80;1996.80
55329;DHT22;41205;44.264;19.884;2023-10-08T05:57:04;460.90;1996.80
55329;DHT22;41205;44.264;19.884;2023-10-08T05:59:50;460.80;2048.00
55329;DHT22;41205;44.264;19.884;2023-10-08T06:02:23;460.80;2048.00
55329;DHT22;41205;44.264;19.884;2023-10-08T06:04:53;460.80;2022.40
55329;DHT22;41205;44.264;19.884;2023-10-08T06:10:28;461.00;2022.40
55329;DHT22;41205;44.264;19.884;2023-10-08T06:15:46;461.10;2022.40
55329;DHT22;41205;44.264;19.884;2023-10-08T06:18:15;461.20;1996.80
55329;DHT22;41205;44.264;19.884;2023-10-08T06:20:42;461.20;1996.80
55329;DHT22;41205;44.264;19.884;2023-10-08T06:23:15;461.30;1996.80
55329;DHT22;41205;44.264;19.884;2023-10-08T06:25:47;461.30;1996.80
55329;DHT22;41205;44.264;19.884;2023-10-08T06:28:20;461.30;1996.80
55329;DHT22;41205;44.264;19.884;2023-10-08T06:30:49;461.30;1996.80
55329;DHT22;41205;44.264;19.884;2023-10-08T06:33:19;461.40;2022.40
55329;DHT22;41205;44.264;19.884;2023-10-08T06:35:46;461.40;1996.80
55329;DHT22;41205;44.264;19.884;2023-10-08T06:38:33;461.50;1996.80
55329;DHT22;41205;44.264;19.884;2023-10-08T06:41:00;461.70;2022.40
55329;DHT22;41205;44.264;19.884;2023-10-08T06:43:26;461.70;2022.40
55329;DHT22;41205;44.264;19.884;2023-10-08T06:45:52;486.40;1996.80
55329;DHT22;41205;44.264;19.884;2023-10-08T06:48:22;486.50;1945.60
55329;DHT22;41205;44.264;19.884;2023-10-08T06:50:52;486.60;1971.20
55329;DHT22;41205;44.264;19.884;2023-10-08T06:53:24;486.70;1971.20
55329;DHT22;41205;44.264;19.884;2023-10-08T06:55:50;486.70;1971.20
55329;DHT22;41205;44.264;19.884;2023-10-08T06:58:30;486.70;1945.60
55329;DHT22;41205;44.264;19.884;2023-10-08T07:00:59;486.70;1971.20
55329;DHT22;41205;44.264;19.884;2023-10-08T07:03:30;486.70;1971.20
55329;DHT22;41205;44.264;19.884;2023-10-08T07:05:57;486.80;1971.20
55329;DHT22;41205;44.264;19.884;2023-10-08T07:08:28;487.00;1971.20
55329;DHT22;41205;44.264;19.884;2023-10-08T07:10:57;487.20;1971.20
55329;DHT22;41205;44.264;19.884;2023-10-08T07:13:25;487.30;1945.60
55329;DHT22;41205;44.264;19.884;2023-10-08T07:15:55;512.10;1945.60
55329;DHT22;41205;44.264;19.884;2023-10-08T07:18:21;512.10;1920.00
55329;DHT22;41205;44.264;19.884;2023-10-08T07:20:55;512.20;1920.00
55329;DHT22;41205;44.264;19.884;2023-10-08T07:23:22;512.20;1920.00
55329;DHT22;41205;44.264;19.884;2023-10-08T07:26:01;512.20;1996.80
55329;DHT22;41205;44.264;19.884;2023-10-08T07:28:44;512.20;1971.20
55329;DHT22;41205;44.264;19.884;2023-10-08T07:31:14;512.30;1996.80
55329;DHT22;41205;44.264;19.884;2023-10-08T07:33:41;512.20;1971.20
55329;DHT22;41205;44.264;19.884;2023-10-08T07:39:31;512.70;2048.00
55329;DHT22;41205;44.264;19.884;2023-10-08T07:41:58;512.80;1945.60
55329;DHT22;41205;44.264;19.884;2023-10-08T07:44:26;512.90;1945.60
55329;DHT22;41205;44.264;19.884;2023-10-08T07:46:55;537.60;1920.00
55329;DHT22;41205;44.264;19.884;2023-10-08T07:49:22;537.90;1920.00
55329;DHT22;41205;44.264;19.884;2023-10-08T07:54:22;538.50;1792.00
55329;DHT22;41205;44.264;19.884;2023-10-08T07:56:49;563.30;1792.00
55329;DHT22;41205;44.264;19.884;2023-10-08T07:59:22;563.90;1792.00
55329;DHT22;41205;44.264;19.884;2023-10-08T08:01:50;588.80;1792.00
55329;DHT22;41205;44.264;19.884;2023-10-08T08:04:17;588.80;1868.80
55329;DHT22;41205;44.264;19.884;2023-10-08T08:06:50;589.40;1817.60
55329;DHT22;41205;44.264;19.884;2023-10-08T08:09:18;614.70;1766.40
55329;DHT22;41205;44.264;19.884;2023-10-08T08:11:48;640.00;1689.60
55329;DHT22;41205;44.264;19.884;2023-10-08T08:14:15;640.20;1638.40
55329;DHT22;41205;44.264;19.884;2023-10-08T08:16:50;640.20;1638.40
55329;DHT22;41205;44.264;19.884;2023-10-08T08:19:17;640.20;1638.40
55329;DHT22;41205;44.264;19.884;2023-10-08T08:21:49;640.50;1587.20
55329;DHT22;41205;44.264;19.884;2023-10-08T08:24:15;665.70;1536.00
55329;DHT22;41205;44.264;19.884;2023-10-08T08:26:55;666.30;1510.40
55329;DHT22;41205;44.264;19.884;2023-10-08T08:29:33;666.40;1510.40
55329;DHT22;41205;44.264;19.884;2023-10-08T08:32:10;666.00;1536.00
55329;DHT22;41205;44.264;19.884;2023-10-08T08:34:44;665.90;1561.60
55329;DHT22;41205;44.264;19.884;2023-10-08T08:37:11;666.20;1587.20
55329;DHT22;41205;44.264;19.884;2023-10-08T08:39:38;742.60;1484.80
55329;DHT22;41205;44.264;19.884;2023-10-08T08:42:04;768.60;1433.60
55329;DHT22;41205;44.264;19.884;2023-10-08T08:44:38;768.90;1408.00
55329;DHT22;41205;44.264;19.884;2023-10-08T08:47:17;768.50;1408.00
55329;DHT22;41205;44.264;19.884;2023-10-08T08:49:47;743.20;1484.80
55329;DHT22;41205;44.264;19.884;2023-10-08T08:54:41;717.50;1459.20
55329;DHT22;41205;44.264;19.884;2023-10-08T08:57:08;691.50;1510.40
55329;DHT22;41205;44.264;19.884;2023-10-08T08:59:44;666.50;1536.00
55329;DHT22;41205;44.264;19.884;2023-10-08T09:02:13;666.30;1510.40
55329;DHT22;41205;44.264;19.884;2023-10-08T09:04:40;666.10;1536.00
55329;DHT22;41205;44.264;19.884;2023-10-08T09:07:07;666.00;1561.60
55329;DHT22;41205;44.264;19.884;2023-10-08T09:09:34;665.70;1561.60
55329;DHT22;41205;44.264;19.884;2023-10-08T09:12:03;665.70;1536.00
55329;DHT22;41205;44.264;19.884;2023-10-08T09:14:31;640.90;1536.00
55329;DHT22;41205;44.264;19.884;2023-10-08T09:17:01;640.70;1510.40
55329;DHT22;41205;44.264;19.884;2023-10-08T09:19:36;640.60;1510.40
55329;DHT22;41205;44.264;19.884;2023-10-08T09:22:05;640.60;1536.00
55329;DHT22;41205;44.264;19.884;2023-10-08T09:24:35;640.60;1536.00
55329;DHT22;41205;44.264;19.884;2023-10-08T09:27:09;640.60;1510.40
55329;DHT22;41205;44.264;19.884;2023-10-08T09:29:40;640.60;1510.40
55329;DHT22;41205;44.264;19.884;2023-10-08T09:32:08;640.60;1510.40
55329;DHT22;41205;44.264;19.884;2023-10-08T09:34:34;665.60;1561.60
55329;DHT22;41205;44.264;19.884;2023-10-08T09:37:00;640.70;1510.40
55329;DHT22;41205;44.264;19.884;2023-10-08T09:39:27;640.90;1510.40
55329;DHT22;41205;44.264;19.884;2023-10-08T09:41:57;665.60;1561.60
55329;DHT22;41205;44.264;19.884;2023-10-08T09:44:24;665.70;1510.40
55329;DHT22;41205;44.264;19.884;2023-10-08T09:47:19;665.80;1510.40
55329;DHT22;41205;44.264;19.884;2023-10-08T09:49:56;665.70;1561.60
55329;DHT22;41205;44.264;19.884;2023-10-08T09:52:27;665.60;1510.40
55329;DHT22;41205;44.264;19.884;2023-10-08T09:55:00;665.60;1536.00
55329;DHT22;41205;44.264;19.884;2023-10-08T09:57:29;665.70;1536.00
55329;DHT22;41205;44.264;19.884;2023-10-08T09:59:55;665.70;1536.00
55329;DHT22;41205;44.264;19.884;2023-10-08T10:02:23;665.80;1510.40
55329;DHT22;41205;44.264;19.884;2023-10-08T10:04:54;665.90;1510.40
55329;DHT22;41205;44.264;19.884;2023-10-08T10:07:21;666.20;1536.00
55329;DHT22;41205;44.264;19.884;2023-10-08T10:09:50;666.30;1536.00
55329;DHT22;41205;44.264;19.884;2023-10-08T10:12:25;666.30;1536.00
55329;DHT22;41205;44.264;19.884;2023-10-08T10:14:56;666.30;1536.00
55329;DHT22;41205;44.264;19.884;2023-10-08T10:17:26;666.40;1536.00
55329;DHT22;41205;44.264;19.884;2023-10-08T10:19:56;666.40;1510.40
55329;DHT22;41205;44.264;19.884;2023-10-08T10:22:33;666.50;1510.40
55329;DHT22;41205;44.264;19.884;2023-10-08T10:25:01;666.50;1536.00
55329;DHT22;41205;44.264;19.884;2023-10-08T10:27:29;666.50;1510.40
55329;DHT22;41205;44.264;19.884;2023-10-08T10:30:05;666.50;1510.40
55329;DHT22;41205;44.264;19.884;2023-10-08T10:32:35;666.50;1510.40
55329;DHT22;41205;44.264;19.884;2023-10-08T10:35:01;691.20;1510.40
55329;DHT22;41205;44.264;19.884;2023-10-08T10:37:32;691.30;1510.40
55329;DHT22;41205;44.264;19.884;2023-10-08T10:40:08;691.30;1484.80
55329;DHT22;41205;44.264;19.884;2023-10-08T10:42:38;691.30;1484.80
55329;DHT22;41205;44.264;19.884;2023-10-08T10:45:14;691.30;1484.80
55329;DHT22;41205;44.264;19.884;2023-10-08T10:48:00;691.40;1510.40
55329;DHT22;41205;44.264;19.884;2023-10-08T10:50:59;691.30;1510.40
55329;DHT22;41205;44.264;19.884;2023-10-08T10:53:38;691.30;1484.80
55329;DHT22;41205;44.264;19.884;2023-10-08T10:56:17;691.40;1484.80
55329;DHT22;41205;44.264;19.884;2023-10-08T10:58:59;691.40;1484.80
55329;DHT22;41205;44.264;19.884;2023-10-08T11:01:28;691.60;1484.80
55329;DHT22;41205;44.264;19.884;2023-10-08T11:04:10;691.40;1484.80
55329;DHT22;41205;44.264;19.884;2023-10-08T11:06:46;691.40;1484.80
55329;DHT22;41205;44.264;19.884;2023-10-08T11:09:12;691.30;1484.80
55329;DHT22;41205;44.264;19.884;2023-10-08T11:11:46;691.40;1484.80
55329;DHT22;41205;44.264;19.884;2023-10-08T11:14:20;691.40;1484.80
55329;DHT22;41205;44.264;19.884;2023-10-08T11:16:47;691.60;1484.80
55329;DHT22;41205;44.264;19.884;2023-10-08T11:19:19;691.50;1484.80
55329;DHT22;41205;44.264;19.884;2023-10-08T11:21:52;691.40;1510.40
55329;DHT22;41205;44.264;19.884;2023-10-08T11:24:31;691.40;1484.80
55329;DHT22;41205;44.264;19.884;2023-10-08T11:27:01;691.30;1484.80
55329;DHT22;41205;44.264;19.884;2023-10-08T11:29:48;691.20;1484.80
55329;DHT22;41205;44.264;19.884;2023-10-08T11:32:22;666.50;1510.40
55329;DHT22;41205;44.264;19.884;2023-10-08T11:35:00;666.40;1510.40
55329;DHT22;41205;44.264;19.884;2023-10-08T11:37:30;666.40;1536.00
55329;DHT22;41205;44.264;19.884;2023-10-08T11:39:59;666.50;1510.40
55329;DHT22;41205;44.264;19.884;2023-10-08T11:42:34;666.50;1510.40
55329;DHT22;41205;44.264;19.884;2023-10-08T11:45:00;691.20;1510.40
55329;DHT22;41205;44.264;19.884;2023-10-08T11:47:44;691.20;1484.80
55329;DHT22;41205;44.264;19.884;2023-10-08T11:50:11;691.20;1484.80
55329;DHT22;41205;44.264;19.884;2023-10-08T11:52:42;691.20;1510.40
55329;DHT22;41205;44.264;19.884;2023-10-08T11:55:11;691.20;1484.80
55329;DHT22;41205;44.264;19.884;2023-10-08T11:57:48;691.40;1484.80
55329;DHT22;41205;44.264;19.884;2023-10-08T12:00:16;691.50;1459.20
55329;DHT22;41205;44.264;19.884;2023-10-08T12:02:52;691.60;1459.20
55329;DHT22;41205;44.264;19.884;2023-10-08T12:05:21;691.60;1484.80
55329;DHT22;41205;44.264;19.884;2023-10-08T12:10:19;691.70;1459.20
55329;DHT22;41205;44.264;19.884;2023-10-08T12:12:53;716.90;1459.20
55329;DHT22;41205;44.264;19.884;2023-10-08T12:15:25;717.10;1459.20
55329;DHT22;41205;44.264;19.884;2023-10-08T12:18:00;717.40;1433.60
55329;DHT22;41205;44.264;19.884;2023-10-08T12:20:38;717.70;1433.60
55329;DHT22;41205;44.264;19.884;2023-10-08T12:23:05;742.40;1408.00
55329;DHT22;41205;44.264;19.884;2023-10-08T12:25:34;742.70;1408.00
55329;DHT22;41205;44.264;19.884;2023-10-08T12:28:03;742.40;1408.00
55329;DHT22;41205;44.264;19.884;2023-10-08T12:30:32;717.60;1382.40
55329;DHT22;41205;44.264;19.884;2023-10-08T12:33:07;717.50;1408.00
55329;DHT22;41205;44.264;19.884;2023-10-08T12:35:33;717.20;1382.40
55329;DHT22;41205;44.264;19.884;2023-10-08T12:37:59;717.20;1382.40
55329;DHT22;41205;44.264;19.884;2023-10-08T12:40:24;716.90;1382.40
55329;DHT22;41205;44.264;19.884;2023-10-08T12:42:57;716.90;1408.00
55329;DHT22;41205;44.264;19.884;2023-10-08T12:45:24;716.90;1433.60
55329;DHT22;41205;44.264;19.884;2023-10-08T12:47:53;716.90;1433.60
55329;DHT22;41205;44.264;19.884;2023-10-08T12:50:21;716.90;1433.60
55329;DHT22;41205;44.264;19.884;2023-10-08T12:53:10;716.80;1433.60
55329;DHT22;41205;44.264;19.884;2023-10-08T12:55:39;716.80;1459.20
55329;DHT22;41205;44.264;19.884;2023-10-08T12:58:06;692.00;1433.60
55329;DHT22;41205;44.264;19.884;2023-10-08T13:00:37;691.80;1459.20
55329;DHT22;41205;44.264;19.884;2023-10-08T13:03:04;691.70;1459.20
55329;DHT22;41205;44.264;19.884;2023-10-08T13:05:32;691.60;1459.20
55329;DHT22;41205;44.264;19.884;2023-10-08T13:07:59;691.60;1459.20
55329;DHT22;41205;44.264;19.884;2023-10-08T13:10:35;691.50;1484.80
55329;DHT22;41205;44.264;19.884;2023-10-08T13:13:01;691.40;1484.80
55329;DHT22;41205;44.264;19.884;2023-10-08T13:15:27;691.50;1484.80
55329;DHT22;41205;44.264;19.884;2023-10-08T13:17:52;691.50;1484.80
55329;DHT22;41205;44.264;19.884;2023-10-08T13:20:19;691.50;1510.40
55329;DHT22;41205;44.264;19.884;2023-10-08T13:22:46;691.30;1484.80
55329;DHT22;41205;44.264;19.884;2023-10-08T13:25:12;691.30;1484.80
55329;DHT22;41205;44.264;19.884;2023-10-08T13:27:39;691.30;1484.80
55329;DHT22;41205;44.264;19.884;2023-10-08T13:30:08;691.30;1510.40
55329;DHT22;41205;44.264;19.884;2023-10-08T13:32:36;691.20;1510.40
55329;DHT22;41205;44.264;19.884;2023-10-08T13:35:04;691.20;1510.40
55329;DHT22;41205;44.264;19.884;2023-10-08T13:37:33;691.20;1536.00
55329;DHT22;41205;44.264;19.884;2023-10-08T13:39:59;666.50;1536.00
55329;DHT22;41205;44.264;19.884;2023-10-08T13:42:24;666.50;1561.60
55329;DHT22;41205;44.264;19.884;2023-10-08T13:44:53;666.30;1561.60
55329;DHT22;41205;44.264;19.884;2023-10-08T13:47:19;666.20;1561.60
55329;DHT22;41205;44.264;19.884;2023-10-08T13:49:47;666.10;1561.60
55329;DHT22;41205;44.264;19.884;2023-10-08T13:52:15;666.00;1587.20
55329;DHT22;41205;44.264;19.884;2023-10-08T13:54:42;666.00;1587.20
55329;DHT22;41205;44.264;19.884;2023-10-08T13:59:44;665.80;1587.20
55329;DHT22;41205;44.264;19.884;2023-10-08T14:02:10;665.70;1587.20
55329;DHT22;41205;44.264;19.884;2023-10-08T14:04:45;665.70;1612.80
55329;DHT22;41205;44.264;19.884;2023-10-08T14:07:11;665.60;1587.20
55329;DHT22;41205;44.264;19.884;2023-10-08T14:09:42;665.60;1587.20
55329;DHT22;41205;44.264;19.884;2023-10-08T14:12:11;665.60;1612.80
55329;DHT22;41205;44.264;19.884;2023-10-08T14:14:37;640.90;1587.20
55329;DHT22;41205;44.264;19.884;2023-10-08T14:17:09;640.90;1587.20
55329;DHT22;41205;44.264;19.884;2023-10-08T14:19:41;640.70;1587.20
55329;DHT22;41205;44.264;19.884;2023-10-08T14:22:33;640.80;1612.80
55329;DHT22;41205;44.264;19.884;2023-10-08T14:25:01;640.70;1612.80
55329;DHT22;41205;44.264;19.884;2023-10-08T14:27:30;640.70;1638.40
55329;DHT22;41205;44.264;19.884;2023-10-08T14:30:04;640.70;1638.40
55329;DHT22;41205;44.264;19.884;2023-10-08T14:32:30;640.60;1638.40
55329;DHT22;41205;44.264;19.884;2023-10-08T14:34:59;640.60;1638.40
55329;DHT22;41205;44.264;19.884;2023-10-08T14:37:43;640.60;1638.40
55329;DHT22;41205;44.264;19.884;2023-10-08T14:40:29;640.40;1638.40
55329;DHT22;41205;44.264;19.884;2023-10-08T14:43:13;640.40;1638.40
55329;DHT22;41205;44.264;19.884;2023-10-08T14:45:41;640.20;1664.00
55329;DHT22;41205;44.264;19.884;2023-10-08T14:48:09;640.20;1664.00
55329;DHT22;41205;44.264;19.884;2023-10-08T14:50:36;640.20;1664.00
55329;DHT22;41205;44.264;19.884;2023-10-08T14:53:04;640.20;1664.00
55329;DHT22;41205;44.264;19.884;2023-10-08T14:55:31;640.20;1664.00
55329;DHT22;41205;44.264;19.884;2023-10-08T14:58:00;640.10;1664.00
55329;DHT22;41205;44.264;19.884;2023-10-08T15:00:31;640.20;1664.00
55329;DHT22;41205;44.264;19.884;2023-10-08T15:02:57;640.10;1689.60
55329;DHT22;41205;44.264;19.884;2023-10-08T15:05:28;640.10;1664.00
55329;DHT22;41205;44.264;19.884;2023-10-08T15:07:54;640.10;1664.00
55329;DHT22;41205;44.264;19.884;2023-10-08T15:10:20;640.00;1664.00
55329;DHT22;41205;44.264;19.884;2023-10-08T15:12:49;640.00;1689.60
55329;DHT22;41205;44.264;19.884;2023-10-08T15:15:17;640.00;1689.60
55329;DHT22;41205;44.264;19.884;2023-10-08T15:17:45;640.00;1689.60
55329;DHT22;41205;44.264;19.884;2023-10-08T15:20:13;615.30;1689.60